createdAt,value
2023-02-02T00:00:57.131Z,-0.28
2023-02-02T00:01:57.110Z,-0.28
2023-02-02T00:02:57.157Z,-0.17
2023-02-02T00:03:57.186Z,-0.17
2023-02-02T00:04:57.112Z,-0.28
2023-02-02T00:05:57.114Z,-0.17
2023-02-02T00:06:57.134Z,-0.28
2023-02-02T00:07:57.124Z,-0.17
2023-02-02T00:08:57.116Z,-0.17
2023-02-02T00:09:57.117Z,-0.39
2023-02-02T00:10:57.116Z,-0.56
2023-02-02T00:11:57.128Z,-0.39
2023-02-02T00:12:57.127Z,-0.28
2023-02-02T00:13:57.130Z,-0.39
2023-02-02T00:14:57.124Z,-0.39
2023-02-02T00:15:57.136Z,-0.39
2023-02-02T00:16:57.145Z,-0.28
2023-02-02T00:17:57.145Z,-0.28
2023-02-02T00:18:57.120Z,-0.39
2023-02-02T00:19:57.120Z,-0.17
2023-02-02T00:20:57.133Z,-0.28
2023-02-02T00:21:57.123Z,-0.28
2023-02-02T00:22:57.138Z,-0.28
2023-02-02T00:23:57.139Z,-0.17
2023-02-02T00:24:57.128Z,-0.28
2023-02-02T00:25:57.143Z,-0.28
2023-02-02T00:26:57.153Z,-0.67
2023-02-02T00:27:57.143Z,-0.39
2023-02-02T00:28:57.139Z,-0.17
2023-02-02T00:29:57.142Z,-0.39
2023-02-02T00:30:57.191Z,-0.39
2023-02-02T00:31:57.164Z,-0.39
2023-02-02T00:32:57.199Z,-0.28
2023-02-02T00:33:57.147Z,-0.28
2023-02-02T00:34:57.142Z,-0.28
2023-02-02T00:35:57.144Z,-0.67
2023-02-02T00:36:57.150Z,-0.39
2023-02-02T00:37:57.150Z,-0.39
2023-02-02T00:38:57.144Z,-0.17
2023-02-02T00:39:57.171Z,-0.17
2023-02-02T00:40:57.137Z,-0.28
2023-02-02T00:41:57.157Z,-0.28
2023-02-02T00:42:57.149Z,-0.39
2023-02-02T00:43:57.158Z,-0.17
2023-02-02T00:44:57.155Z,-0.28
2023-02-02T00:45:57.208Z,-0.17
2023-02-02T00:46:57.159Z,0
2023-02-02T00:47:57.162Z,-0.17
2023-02-02T00:48:57.186Z,-0.39
2023-02-02T00:49:57.162Z,-0.39
2023-02-02T00:50:57.162Z,-0.28
2023-02-02T00:51:57.158Z,-0.39
2023-02-02T00:52:57.156Z,-0.39
2023-02-02T00:53:57.168Z,-0.17
2023-02-02T00:54:57.161Z,-0.39
2023-02-02T00:55:57.176Z,-0.17
2023-02-02T00:56:57.168Z,-0.83
2023-02-02T00:57:57.168Z,-0.17
2023-02-02T00:58:57.161Z,-0.28
2023-02-02T00:59:57.173Z,-0.56
2023-02-02T01:00:57.201Z,0
2023-02-02T01:01:57.220Z,-0.28
2023-02-02T01:02:57.153Z,-0.28
2023-02-02T01:03:57.181Z,-0.39
2023-02-02T01:04:57.205Z,-0.39
2023-02-02T01:05:57.172Z,-0.28
2023-02-02T01:06:57.168Z,-0.28
2023-02-02T01:07:57.171Z,-0.56
2023-02-02T01:08:57.172Z,-0.28
2023-02-02T01:09:57.175Z,-0.28
2023-02-02T01:10:57.170Z,0
2023-02-02T01:11:57.171Z,-0.28
2023-02-02T01:12:57.168Z,-0.39
2023-02-02T01:13:57.172Z,-0.17
2023-02-02T01:14:57.171Z,-0.17
2023-02-02T01:15:57.173Z,-0.17
2023-02-02T01:16:57.173Z,-0.39
2023-02-02T01:17:57.161Z,-0.28
2023-02-02T01:18:57.170Z,-0.28
2023-02-02T01:19:57.199Z,-0.17
2023-02-02T01:20:57.203Z,-0.28
2023-02-02T01:21:57.170Z,-0.17
2023-02-02T01:22:57.171Z,-0.39
2023-02-02T01:23:57.176Z,-0.39
2023-02-02T01:24:57.174Z,-0.39
2023-02-02T01:25:57.190Z,-0.28
2023-02-02T01:26:57.172Z,-0.28
2023-02-02T01:27:57.175Z,-0.28
2023-02-02T01:28:57.171Z,-0.28
2023-02-02T01:29:57.172Z,-0.67
2023-02-02T01:30:57.254Z,-0.17
2023-02-02T01:31:57.199Z,-0.28
2023-02-02T01:32:57.177Z,-0.28
2023-02-02T01:33:57.165Z,-0.39
2023-02-02T01:34:57.167Z,-0.17
2023-02-02T01:35:57.178Z,-0.28
2023-02-02T01:36:57.195Z,-0.67
2023-02-02T01:37:57.169Z,-0.67
2023-02-02T01:38:57.178Z,-0.17
2023-02-02T01:39:57.192Z,-0.28
2023-02-02T01:40:57.189Z,0
2023-02-02T01:41:57.185Z,-0.39
2023-02-02T01:42:57.171Z,-0.39
2023-02-02T01:43:57.198Z,0
2023-02-02T01:44:57.189Z,-0.28
2023-02-02T01:45:57.251Z,-0.17
2023-02-02T01:46:57.182Z,0
2023-02-02T01:47:57.176Z,-0.28
2023-02-02T01:48:57.195Z,-0.39
2023-02-02T01:49:57.191Z,-0.28
2023-02-02T01:50:57.180Z,-0.17
2023-02-02T01:51:57.172Z,-0.28
2023-02-02T01:52:57.214Z,-0.39
2023-02-02T01:53:57.187Z,-0.28
2023-02-02T01:54:57.191Z,-0.17
2023-02-02T01:55:57.196Z,-0.39
2023-02-02T01:56:57.192Z,-0.17
2023-02-02T01:57:57.211Z,-0.28
2023-02-02T01:58:57.192Z,-0.17
2023-02-02T01:59:57.195Z,-0.39
2023-02-02T02:00:57.220Z,-0.28
2023-02-02T02:01:57.191Z,-0.39
2023-02-02T02:02:57.201Z,-0.39
2023-02-02T02:03:57.204Z,-0.17
2023-02-02T02:04:57.199Z,-0.28
2023-02-02T02:05:57.214Z,-0.28
2023-02-02T02:06:57.197Z,-0.17
2023-02-02T02:07:57.200Z,-0.39
2023-02-02T02:08:57.222Z,-0.28
2023-02-02T02:09:57.207Z,-0.28
2023-02-02T02:10:57.203Z,0
2023-02-02T02:11:57.213Z,-0.17
2023-02-02T02:12:57.217Z,-0.17
2023-02-02T02:13:57.223Z,-0.39
2023-02-02T02:14:57.204Z,-0.28
2023-02-02T02:15:57.222Z,-0.17
2023-02-02T02:16:57.295Z,-0.28
2023-02-02T02:17:57.214Z,-0.28
2023-02-02T02:18:57.208Z,-0.56
2023-02-02T02:19:57.218Z,-0.56
2023-02-02T02:20:57.222Z,-0.28
2023-02-02T02:21:57.202Z,-0.28
2023-02-02T02:22:57.213Z,0
2023-02-02T02:23:57.215Z,-0.28
2023-02-02T02:24:57.305Z,0
2023-02-02T02:25:57.215Z,-0.28
2023-02-02T02:26:57.213Z,-0.17
2023-02-02T02:27:57.235Z,-0.39
2023-02-02T02:28:57.217Z,-0.17
2023-02-02T02:29:57.215Z,0
2023-02-02T02:30:57.258Z,-0.28
2023-02-02T02:31:57.223Z,-0.28
2023-02-02T02:32:57.212Z,-0.28
2023-02-02T02:33:57.226Z,0
2023-02-02T02:34:57.220Z,-0.39
2023-02-02T02:35:57.228Z,-0.39
2023-02-02T02:36:57.230Z,-0.28
2023-02-02T02:37:57.238Z,-0.28
2023-02-02T02:38:57.232Z,-0.39
2023-02-02T02:39:57.219Z,-0.28
2023-02-02T02:40:57.253Z,-0.28
2023-02-02T02:41:57.225Z,-0.28
2023-02-02T02:42:57.238Z,-0.17
2023-02-02T02:43:57.229Z,0
2023-02-02T02:44:57.235Z,-0.39
2023-02-02T02:45:57.270Z,-0.28
2023-02-02T02:46:57.226Z,-0.17
2023-02-02T02:47:57.246Z,-0.28
2023-02-02T02:48:57.229Z,-0.39
2023-02-02T02:49:57.224Z,0
2023-02-02T02:50:57.231Z,-0.17
2023-02-02T02:51:57.242Z,-0.17
2023-02-02T02:52:57.234Z,-0.28
2023-02-02T02:53:57.237Z,-0.17
2023-02-02T02:54:57.230Z,-0.17
2023-02-02T02:55:57.244Z,-0.28
2023-02-02T02:56:57.271Z,0
2023-02-02T02:57:57.244Z,0
2023-02-02T02:58:57.234Z,0
2023-02-02T02:59:57.246Z,-0.28
2023-02-02T03:00:57.242Z,-0.28
2023-02-02T03:01:57.244Z,-0.28
2023-02-02T03:02:57.352Z,0
2023-02-02T03:03:57.255Z,-0.17
2023-02-02T03:04:57.260Z,-0.17
2023-02-02T03:05:57.263Z,-0.17
2023-02-02T03:06:57.251Z,-0.17
2023-02-02T03:07:57.250Z,0
2023-02-02T03:08:57.255Z,-0.17
2023-02-02T03:09:57.244Z,0
2023-02-02T03:10:57.255Z,-0.39
2023-02-02T03:11:57.261Z,-0.17
2023-02-02T03:12:57.270Z,-0.28
2023-02-02T03:13:57.262Z,0
2023-02-02T03:14:57.251Z,-0.28
2023-02-02T03:15:57.274Z,0
2023-02-02T03:16:57.250Z,-0.28
2023-02-02T03:17:57.246Z,-0.17
2023-02-02T03:18:57.246Z,0
2023-02-02T03:19:57.253Z,-0.56
2023-02-02T03:20:57.260Z,-0.17
2023-02-02T03:21:57.260Z,0
2023-02-02T03:22:57.267Z,0
2023-02-02T03:23:57.255Z,0
2023-02-02T03:24:57.258Z,0
2023-02-02T03:25:57.261Z,0
2023-02-02T03:26:57.257Z,0
2023-02-02T03:27:57.262Z,-0.17
2023-02-02T03:28:57.278Z,0
2023-02-02T03:29:57.259Z,0
2023-02-02T03:30:57.358Z,0
2023-02-02T03:31:57.260Z,0
2023-02-02T03:32:57.284Z,-0.17
2023-02-02T03:33:57.256Z,0
2023-02-02T03:34:57.258Z,-0.17
2023-02-02T03:35:57.268Z,0
2023-02-02T03:36:57.253Z,-0.17
2023-02-02T03:37:57.270Z,0
2023-02-02T03:38:57.257Z,-0.28
2023-02-02T03:39:57.276Z,0.17
2023-02-02T03:40:57.261Z,-0.39
2023-02-02T03:41:57.266Z,0
2023-02-02T03:42:57.256Z,-0.17
2023-02-02T03:43:57.269Z,0
2023-02-02T03:44:57.298Z,0
2023-02-02T03:45:57.268Z,0
2023-02-02T03:46:57.274Z,0
2023-02-02T03:47:57.276Z,0.17
2023-02-02T03:48:57.270Z,0
2023-02-02T03:49:57.265Z,-0.17
2023-02-02T03:50:57.285Z,-0.17
2023-02-02T03:51:57.261Z,0.17
2023-02-02T03:52:57.272Z,0
2023-02-02T03:53:57.272Z,-0.17
2023-02-02T03:54:57.282Z,0.17
2023-02-02T03:55:57.275Z,0
2023-02-02T03:56:57.297Z,-0.28
2023-02-02T03:57:57.268Z,0
2023-02-02T03:58:57.270Z,-0.17
2023-02-02T03:59:57.297Z,-0.28
2023-02-02T04:00:57.326Z,-0.17
2023-02-02T04:01:57.359Z,-0.17
2023-02-02T04:02:57.324Z,0
2023-02-02T04:03:57.269Z,-0.17
2023-02-02T04:04:57.266Z,-0.28
2023-02-02T04:05:57.276Z,-0.17
2023-02-02T04:06:57.267Z,0
2023-02-02T04:07:57.269Z,-0.17
2023-02-02T04:08:57.267Z,-0.17
2023-02-02T04:09:57.281Z,-0.17
2023-02-02T04:10:57.270Z,-0.17
2023-02-02T04:11:57.274Z,-0.28
2023-02-02T04:12:57.279Z,0
2023-02-02T04:13:57.279Z,0
2023-02-02T04:14:57.280Z,0.17
2023-02-02T04:15:57.306Z,-0.17
2023-02-02T04:16:57.300Z,0
2023-02-02T04:17:57.280Z,0.17
2023-02-02T04:18:57.280Z,-0.28
2023-02-02T04:19:57.282Z,0
2023-02-02T04:20:57.289Z,0
2023-02-02T04:21:57.296Z,0
2023-02-02T04:22:57.285Z,0
2023-02-02T04:23:57.287Z,-0.28
2023-02-02T04:24:57.276Z,-0.17
2023-02-02T04:25:57.311Z,-0.28
2023-02-02T04:26:57.295Z,-0.17
2023-02-02T04:27:57.298Z,0
2023-02-02T04:28:57.307Z,0
2023-02-02T04:29:57.292Z,0
2023-02-02T04:30:57.348Z,0
2023-02-02T04:31:57.301Z,-0.17
2023-02-02T04:32:57.336Z,-0.17
2023-02-02T04:33:57.300Z,-0.28
2023-02-02T04:34:57.302Z,-0.17
2023-02-02T04:35:57.309Z,-0.17
2023-02-02T04:36:57.301Z,-0.17
2023-02-02T04:37:57.298Z,-0.17
2023-02-02T04:38:57.302Z,-0.17
2023-02-02T04:39:57.309Z,0
2023-02-02T04:40:57.303Z,-0.28
2023-02-02T04:41:57.306Z,0.17
2023-02-02T04:42:57.303Z,0
2023-02-02T04:43:57.310Z,-0.17
2023-02-02T04:44:57.339Z,0
2023-02-02T04:45:57.443Z,-0.17
2023-02-02T04:46:57.312Z,0
2023-02-02T04:47:57.330Z,0
2023-02-02T04:48:57.334Z,-0.17
2023-02-02T04:49:57.324Z,-0.17
2023-02-02T04:50:57.324Z,-0.28
2023-02-02T04:51:57.323Z,-0.28
2023-02-02T04:52:57.318Z,-0.17
2023-02-02T04:53:57.333Z,-0.17
2023-02-02T04:54:57.332Z,0
2023-02-02T04:55:57.317Z,-0.39
2023-02-02T04:56:57.324Z,-0.17
2023-02-02T04:57:57.332Z,0
2023-02-02T04:58:57.315Z,-0.28
2023-02-02T04:59:57.330Z,0
2023-02-02T05:00:57.351Z,0.17
2023-02-02T05:01:57.335Z,0
2023-02-02T05:02:57.330Z,0
2023-02-02T05:03:57.327Z,-0.28
2023-02-02T05:04:57.364Z,0
2023-02-02T05:05:57.329Z,-0.17
2023-02-02T05:06:57.329Z,-0.17
2023-02-02T05:07:57.329Z,0
2023-02-02T05:08:57.347Z,-0.17
2023-02-02T05:09:57.334Z,-0.28
2023-02-02T05:10:57.336Z,-0.28
2023-02-02T05:11:57.340Z,-0.39
2023-02-02T05:12:57.343Z,0
2023-02-02T05:13:57.335Z,0
2023-02-02T05:14:57.341Z,0
2023-02-02T05:15:57.334Z,0
2023-02-02T05:16:57.372Z,0
2023-02-02T05:17:57.348Z,0
2023-02-02T05:18:57.346Z,0
2023-02-02T05:19:57.339Z,-0.17
2023-02-02T05:20:57.383Z,-0.17
2023-02-02T05:21:57.348Z,0
2023-02-02T05:22:57.340Z,0
2023-02-02T05:23:57.350Z,-0.17
2023-02-02T05:24:57.342Z,0
2023-02-02T05:25:57.332Z,-0.17
2023-02-02T05:26:57.381Z,0
2023-02-02T05:27:57.338Z,-0.17
2023-02-02T05:28:57.361Z,0
2023-02-02T05:29:57.349Z,0
2023-02-02T05:30:57.460Z,-0.28
2023-02-02T05:31:57.374Z,-0.17
2023-02-02T05:32:57.349Z,-0.28
2023-02-02T05:33:57.349Z,-0.28
2023-02-02T05:34:57.352Z,0
2023-02-02T05:35:57.349Z,-0.56
2023-02-02T05:36:57.373Z,-0.28
2023-02-02T05:37:59.214Z,0
2023-02-02T05:38:57.354Z,-0.28
2023-02-02T05:39:57.370Z,0
2023-02-02T05:40:57.353Z,0
2023-02-02T05:41:57.350Z,-0.17
2023-02-02T05:42:57.354Z,-0.17
2023-02-02T05:43:57.367Z,0
2023-02-02T05:44:57.358Z,0
2023-02-02T05:45:57.375Z,-0.17
2023-02-02T05:46:57.347Z,-0.17
2023-02-02T05:47:57.373Z,0
2023-02-02T05:48:57.358Z,-0.28
2023-02-02T05:49:57.378Z,0
2023-02-02T05:50:57.360Z,0
2023-02-02T05:51:57.365Z,0
2023-02-02T05:52:57.386Z,-0.17
2023-02-02T05:53:58.427Z,0
2023-02-02T05:54:57.369Z,-0.17
2023-02-02T05:55:57.373Z,-0.28
2023-02-02T05:56:57.372Z,-0.39
2023-02-02T05:57:57.367Z,0
2023-02-02T05:58:57.386Z,-0.17
2023-02-02T05:59:57.367Z,0
2023-02-02T06:00:57.372Z,0
2023-02-02T06:01:57.371Z,-0.28
2023-02-02T06:02:57.428Z,0
2023-02-02T06:03:57.402Z,-0.28
2023-02-02T06:04:57.380Z,-0.28
2023-02-02T06:05:57.359Z,-0.17
2023-02-02T06:06:57.373Z,-0.28
2023-02-02T06:07:57.360Z,-0.17
2023-02-02T06:08:57.402Z,-0.39
2023-02-02T06:09:57.379Z,-0.28
2023-02-02T06:10:57.379Z,-0.17
2023-02-02T06:11:57.375Z,-0.39
2023-02-02T06:12:57.362Z,-0.17
2023-02-02T06:13:57.360Z,-0.17
2023-02-02T06:14:57.374Z,-0.17
2023-02-02T06:15:57.414Z,-0.17
2023-02-02T06:16:57.367Z,0
2023-02-02T06:17:57.377Z,0
2023-02-02T06:18:57.370Z,-0.17
2023-02-02T06:19:57.370Z,-0.28
2023-02-02T06:20:57.379Z,-0.17
2023-02-02T06:21:57.381Z,-0.17
2023-02-02T06:22:57.368Z,0
2023-02-02T06:23:57.377Z,-0.17
2023-02-02T06:24:57.396Z,-0.17
2023-02-02T06:25:57.371Z,0
2023-02-02T06:26:57.431Z,-0.17
2023-02-02T06:27:57.377Z,-0.17
2023-02-02T06:28:57.374Z,-0.17
2023-02-02T06:29:57.373Z,-0.28
2023-02-02T06:30:57.438Z,-0.17
2023-02-02T06:31:57.522Z,-0.17
2023-02-02T06:32:57.372Z,-0.39
2023-02-02T06:33:57.383Z,-0.56
2023-02-02T06:34:57.388Z,-0.56
2023-02-02T06:35:57.385Z,-0.17
2023-02-02T06:36:57.397Z,-0.17
2023-02-02T06:37:57.396Z,0
2023-02-02T06:38:57.403Z,0
2023-02-02T06:39:57.428Z,0
2023-02-02T06:40:57.415Z,-0.17
2023-02-02T06:41:57.405Z,-0.28
2023-02-02T06:42:57.397Z,-0.17
2023-02-02T06:43:57.400Z,0
2023-02-02T06:44:57.398Z,-0.17
2023-02-02T06:45:57.436Z,0
2023-02-02T06:46:57.394Z,-0.17
2023-02-02T06:47:57.403Z,0
2023-02-02T06:48:57.406Z,0.28
2023-02-02T06:49:57.419Z,-0.17
2023-02-02T06:50:57.418Z,0
2023-02-02T06:51:57.417Z,-0.17
2023-02-02T06:52:57.422Z,0
2023-02-02T06:53:59.447Z,0.17
2023-02-02T06:54:57.424Z,0.28
2023-02-02T06:55:57.411Z,0.28
2023-02-02T06:56:57.453Z,0
2023-02-02T06:57:57.431Z,0
2023-02-02T06:58:57.435Z,0.17
2023-02-02T06:59:57.433Z,0.28
2023-02-02T07:00:57.430Z,-0.17
2023-02-02T07:01:57.490Z,0
2023-02-02T07:02:57.487Z,0
2023-02-02T07:03:57.458Z,-0.17
2023-02-02T07:04:57.431Z,-0.17
2023-02-02T07:05:57.442Z,0
2023-02-02T07:06:57.449Z,0
2023-02-02T07:07:57.471Z,-0.17
2023-02-02T07:08:57.720Z,0
2023-02-02T07:09:57.712Z,-0.17
2023-02-02T07:11:09.317Z,0.17
2023-02-02T07:11:59.391Z,0.17
2023-02-02T07:12:57.474Z,0.17
2023-02-02T07:13:57.457Z,0.17
2023-02-02T07:14:57.453Z,-0.17
2023-02-02T07:15:57.494Z,0
2023-02-02T07:16:57.447Z,0.28
2023-02-02T07:17:57.447Z,-0.17
2023-02-02T07:18:57.454Z,0
2023-02-02T07:19:57.446Z,0
2023-02-02T07:20:57.465Z,0.28
2023-02-02T07:21:57.472Z,0.28
2023-02-02T07:22:57.448Z,-0.28
2023-02-02T07:23:57.469Z,-0.39
2023-02-02T07:24:57.483Z,0
2023-02-02T07:25:57.457Z,0
2023-02-02T07:26:57.544Z,0.17
2023-02-02T07:27:57.465Z,0.28
2023-02-02T07:28:57.509Z,0.17
2023-02-02T07:29:57.478Z,0.17
2023-02-02T07:30:57.645Z,0
2023-02-02T07:31:57.507Z,0.28
2023-02-02T07:32:57.478Z,0.17
2023-02-02T07:33:57.481Z,0
2023-02-02T07:34:57.473Z,0
2023-02-02T07:35:57.496Z,0.17
2023-02-02T07:36:57.482Z,0
2023-02-02T07:37:57.489Z,0.28
2023-02-02T07:38:57.621Z,0.44
2023-02-02T07:39:57.497Z,0.28
2023-02-02T07:40:57.477Z,0.44
2023-02-02T07:41:57.490Z,0
2023-02-02T07:42:57.485Z,0.28
2023-02-02T07:43:57.487Z,0
2023-02-02T07:44:57.548Z,0
2023-02-02T07:45:57.498Z,0.28
2023-02-02T07:46:57.489Z,0.44
2023-02-02T07:47:57.503Z,0
2023-02-02T07:48:57.487Z,0.72
2023-02-02T07:49:57.497Z,0
2023-02-02T07:50:57.496Z,0.28
2023-02-02T07:51:57.557Z,0.44
2023-02-02T07:52:57.507Z,0.17
2023-02-02T07:53:57.506Z,0
2023-02-02T07:55:09.041Z,-0.17
2023-02-02T07:55:57.515Z,0
2023-02-02T07:56:57.506Z,0.44
2023-02-02T07:57:57.509Z,0.28
2023-02-02T07:58:57.503Z,0.17
2023-02-02T07:59:57.513Z,0
2023-02-02T08:00:57.637Z,0.17
2023-02-02T08:01:57.567Z,0.44
2023-02-02T08:02:57.567Z,0.17
2023-02-02T08:03:57.524Z,0
2023-02-02T08:04:57.517Z,0.17
2023-02-02T08:05:57.522Z,0.17
2023-02-02T08:06:57.543Z,0.17
2023-02-02T08:07:57.525Z,0
2023-02-02T08:08:57.534Z,0.17
2023-02-02T08:09:57.543Z,0.17
2023-02-02T08:10:57.542Z,0.28
2023-02-02T08:11:57.535Z,0.17
2023-02-02T08:12:57.543Z,0.44
2023-02-02T08:13:57.537Z,0.28
2023-02-02T08:14:57.539Z,0.17
2023-02-02T08:15:57.585Z,0.44
2023-02-02T08:16:57.563Z,0.17
2023-02-02T08:17:57.534Z,0.44
2023-02-02T08:18:57.543Z,0.28
2023-02-02T08:19:57.557Z,0.28
2023-02-02T08:20:57.549Z,0.17
2023-02-02T08:21:57.549Z,0.44
2023-02-02T08:22:57.552Z,0.44
2023-02-02T08:23:57.564Z,0.28
2023-02-02T08:24:57.561Z,-0.17
2023-02-02T08:25:57.550Z,-0.17
2023-02-02T08:26:57.595Z,0.44
2023-02-02T08:27:57.560Z,0.28
2023-02-02T08:28:57.557Z,0.44
2023-02-02T08:29:57.559Z,0.44
2023-02-02T08:30:57.609Z,0.17
2023-02-02T08:31:57.688Z,0.28
2023-02-02T08:32:57.607Z,0.28
2023-02-02T08:33:57.580Z,0.61
2023-02-02T08:34:57.572Z,0.44
2023-02-02T08:35:57.562Z,0.17
2023-02-02T08:36:57.560Z,0.28
2023-02-02T08:37:57.582Z,0.17
2023-02-02T08:38:57.581Z,0.44
2023-02-02T08:39:57.618Z,0.28
2023-02-02T08:40:57.576Z,0.17
2023-02-02T08:41:57.584Z,0.44
2023-02-02T08:42:57.597Z,0.28
2023-02-02T08:43:57.590Z,0.28
2023-02-02T08:46:00.854Z,0.17
2023-02-02T08:46:00.922Z,0.44
2023-02-02T08:46:57.640Z,0.17
2023-02-02T08:48:10.694Z,0.28
2023-02-02T08:48:57.613Z,0.28
2023-02-02T08:49:57.598Z,0.44
2023-02-02T08:50:57.601Z,0.44
2023-02-02T08:51:57.594Z,0.44
2023-02-02T08:52:57.594Z,0.44
2023-02-02T08:53:57.613Z,0
2023-02-02T08:54:57.593Z,0.44
2023-02-02T08:55:57.613Z,0.28
2023-02-02T08:56:57.595Z,0.44
2023-02-02T08:57:57.607Z,0.28
2023-02-02T08:58:57.616Z,0.44
2023-02-02T08:59:57.603Z,0.17
2023-02-02T09:00:57.644Z,0.17
2023-02-02T09:01:57.654Z,0.44
2023-02-02T09:02:57.601Z,0.44
2023-02-02T09:03:57.616Z,0
2023-02-02T09:04:57.627Z,0.28
2023-02-02T09:05:57.609Z,0.28
2023-02-02T09:06:57.615Z,0.44
2023-02-02T09:07:57.621Z,0
2023-02-02T09:08:57.630Z,0.17
2023-02-02T09:09:57.616Z,0.28
2023-02-02T09:10:57.603Z,0.17
2023-02-02T09:11:57.618Z,0.17
2023-02-02T09:12:57.614Z,-0.17
2023-02-02T09:13:57.630Z,0.17
2023-02-02T09:14:57.619Z,0
2023-02-02T09:15:57.619Z,0.44
2023-02-02T09:16:57.721Z,0.44
2023-02-02T09:17:57.624Z,0
2023-02-02T09:18:57.622Z,0.17
2023-02-02T09:19:57.620Z,0.44
2023-02-02T09:20:57.644Z,0.61
2023-02-02T09:21:57.634Z,0.28
2023-02-02T09:22:57.679Z,0
2023-02-02T09:23:57.650Z,0.44
2023-02-02T09:24:57.639Z,0.44
2023-02-02T09:25:57.626Z,0.72
2023-02-02T09:26:57.798Z,0.44
2023-02-02T09:27:57.632Z,0.28
2023-02-02T09:28:57.694Z,0.17
2023-02-02T09:29:57.657Z,0
2023-02-02T09:30:57.715Z,0.28
2023-02-02T09:31:57.694Z,0.17
2023-02-02T09:32:57.643Z,0
2023-02-02T09:33:57.640Z,-0.28
2023-02-02T09:34:57.640Z,0
2023-02-02T09:35:57.633Z,0
2023-02-02T09:36:57.651Z,0.28
2023-02-02T09:37:57.636Z,0
2023-02-02T09:38:57.640Z,0.44
2023-02-02T09:39:57.651Z,0.44
2023-02-02T09:40:57.633Z,0.44
2023-02-02T09:41:57.651Z,0.28
2023-02-02T09:42:57.648Z,0.44
2023-02-02T09:43:57.640Z,0.61
2023-02-02T09:44:57.657Z,0.72
2023-02-02T09:45:57.756Z,0.44
2023-02-02T09:46:57.653Z,0.28
2023-02-02T09:47:57.645Z,0.44
2023-02-02T09:48:57.644Z,0.44
2023-02-02T09:49:57.642Z,0.17
2023-02-02T09:50:57.664Z,0.72
2023-02-02T09:51:57.661Z,0.44
2023-02-02T09:52:57.681Z,0.61
2023-02-02T09:53:57.645Z,0.44
2023-02-02T09:54:57.645Z,0.72
2023-02-02T09:55:57.662Z,0.72
2023-02-02T09:56:57.658Z,0.72
2023-02-02T09:57:57.663Z,0.44
2023-02-02T09:59:02.102Z,0.61
2023-02-02T09:59:57.716Z,0.89
2023-02-02T10:00:57.735Z,0.72
2023-02-02T10:01:57.664Z,1.06
2023-02-02T10:02:57.650Z,0.89
2023-02-02T10:03:57.764Z,0.44
2023-02-02T10:04:57.660Z,0.72
2023-02-02T10:05:57.669Z,0.61
2023-02-02T10:06:57.661Z,0.89
2023-02-02T10:07:57.669Z,0.89
2023-02-02T10:08:57.694Z,0.61
2023-02-02T10:09:57.676Z,0.61
2023-02-02T10:10:57.667Z,0.17
2023-02-02T10:11:57.668Z,0.72
2023-02-02T10:12:57.674Z,0.17
2023-02-02T10:13:57.659Z,0.72
2023-02-02T10:14:57.774Z,0.44
2023-02-02T10:15:58.874Z,0.28
2023-02-02T10:16:57.675Z,0.44
2023-02-02T10:17:57.665Z,0.44
2023-02-02T10:18:57.690Z,0
2023-02-02T10:19:57.674Z,0
2023-02-02T10:20:57.679Z,0.17
2023-02-02T10:21:57.708Z,0.28
2023-02-02T10:22:57.681Z,0.28
2023-02-02T10:23:57.669Z,0.44
2023-02-02T10:24:57.693Z,0.17
2023-02-02T10:25:57.680Z,0.44
2023-02-02T10:26:57.760Z,0.44
2023-02-02T10:27:57.678Z,0.72
2023-02-02T10:28:57.676Z,0.44
2023-02-02T10:29:57.672Z,0.44
2023-02-02T10:30:57.767Z,0.61
2023-02-02T10:31:57.792Z,0.28
2023-02-02T10:32:59.621Z,0.61
2023-02-02T10:33:57.676Z,0.61
2023-02-02T10:35:06.947Z,0.61
2023-02-02T10:35:57.689Z,0.61
2023-02-02T10:36:57.681Z,0.44
2023-02-02T10:37:57.681Z,0.44
2023-02-02T10:38:57.683Z,0.28
2023-02-02T10:39:57.864Z,0.28
2023-02-02T10:40:57.702Z,0.72
2023-02-02T10:41:57.707Z,0.72
2023-02-02T10:42:58.042Z,0.89
2023-02-02T10:43:57.694Z,0.72
2023-02-02T10:44:57.690Z,0.61
2023-02-02T10:45:57.701Z,0.72
2023-02-02T10:46:57.689Z,0.17
2023-02-02T10:47:57.687Z,0.89
2023-02-02T10:48:59.288Z,0.44
2023-02-02T10:49:57.681Z,0.61
2023-02-02T10:50:57.705Z,0.44
2023-02-02T10:51:57.726Z,0.17
2023-02-02T10:52:57.694Z,0.28
2023-02-02T10:53:57.691Z,0.28
2023-02-02T10:54:59.185Z,0
2023-02-02T10:55:57.695Z,0.44
2023-02-02T10:56:57.720Z,0.89
2023-02-02T10:57:57.697Z,0.17
2023-02-02T10:58:57.678Z,0.28
2023-02-02T10:59:57.701Z,0.72
2023-02-02T11:00:57.683Z,0.44
2023-02-02T11:02:00.154Z,0.61
2023-02-02T11:02:57.724Z,0.44
2023-02-02T11:03:57.705Z,0.44
2023-02-02T11:04:57.710Z,0.61
2023-02-02T11:05:57.700Z,0.44
2023-02-02T11:06:59.294Z,0.44
2023-02-02T11:07:57.697Z,0.44
2023-02-02T11:08:57.735Z,0.72
2023-02-02T11:09:57.701Z,0.28
2023-02-02T11:10:57.695Z,0.28
2023-02-02T11:11:57.699Z,0.72
2023-02-02T11:12:59.036Z,0.44
2023-02-02T11:13:57.701Z,0.89
2023-02-02T11:14:57.701Z,0.17
2023-02-02T11:15:59.941Z,0.44
2023-02-02T11:16:57.698Z,0.61
2023-02-02T11:17:57.703Z,0.44
2023-02-02T11:18:57.703Z,0.17
2023-02-02T11:19:57.705Z,0.17
2023-02-02T11:20:57.705Z,0.61
2023-02-02T11:21:57.698Z,0.28
2023-02-02T11:22:57.699Z,0.44
2023-02-02T11:23:57.698Z,0.61
2023-02-02T11:24:57.694Z,0.61
2023-02-02T11:25:57.697Z,0.89
2023-02-02T11:26:57.740Z,0.28
2023-02-02T11:27:57.718Z,0.72
2023-02-02T11:28:59.918Z,0.61
2023-02-02T11:29:57.700Z,0.61
2023-02-02T11:30:57.799Z,0.28
2023-02-02T11:31:57.806Z,0.44
2023-02-02T11:32:57.705Z,0.44
2023-02-02T11:33:57.702Z,0.89
2023-02-02T11:34:57.717Z,0.72
2023-02-02T11:35:57.699Z,0.72
2023-02-02T11:36:57.723Z,0.61
2023-02-02T11:37:57.709Z,0.61
2023-02-02T11:38:57.713Z,0.61
2023-02-02T11:39:57.718Z,0.72
2023-02-02T11:40:57.709Z,0.61
2023-02-02T11:41:57.719Z,0.72
2023-02-02T11:42:57.711Z,0.89
2023-02-02T11:43:57.743Z,0.72
2023-02-02T11:44:57.752Z,0.89
2023-02-02T11:45:57.731Z,0.61
2023-02-02T11:46:57.821Z,0.28
2023-02-02T11:47:57.725Z,0.72
2023-02-02T11:48:57.747Z,0.61
2023-02-02T11:49:58.924Z,0
2023-02-02T11:50:57.783Z,0.89
2023-02-02T11:51:57.747Z,0.61
2023-02-02T11:52:57.774Z,0.72
2023-02-02T11:53:57.738Z,0.89
2023-02-02T11:54:57.736Z,0.72
2023-02-02T11:55:57.739Z,0.89
2023-02-02T11:56:57.745Z,0.89
2023-02-02T11:57:57.738Z,0.89
2023-02-02T11:58:57.741Z,0.72
2023-02-02T11:59:57.749Z,0.89
2023-02-02T12:00:57.762Z,0.61
2023-02-02T12:01:57.757Z,0.89
2023-02-02T12:02:57.736Z,0.28
2023-02-02T12:03:57.798Z,0.61
2023-02-02T12:04:57.757Z,0.72
2023-02-02T12:05:57.753Z,0.72
2023-02-02T12:06:57.754Z,0.72
2023-02-02T12:07:57.751Z,0.89
2023-02-02T12:08:57.751Z,0.61
2023-02-02T12:09:57.737Z,0.61
2023-02-02T12:10:57.755Z,0.44
2023-02-02T12:11:57.754Z,0.44
2023-02-02T12:12:57.751Z,0.44
2023-02-02T12:13:57.754Z,0.61
2023-02-02T12:14:57.764Z,0.28
2023-02-02T12:15:57.864Z,0.17
2023-02-02T12:16:57.789Z,0.61
2023-02-02T12:17:57.749Z,0.44
2023-02-02T12:18:57.740Z,0.61
2023-02-02T12:19:57.748Z,0.61
2023-02-02T12:20:57.759Z,0.44
2023-02-02T12:21:57.771Z,0.72
2023-02-02T12:22:57.742Z,0.28
2023-02-02T12:23:57.761Z,0.72
2023-02-02T12:24:57.760Z,0.61
2023-02-02T12:25:57.765Z,0.44
2023-02-02T12:26:57.784Z,0.61
2023-02-02T12:27:57.775Z,0.44
2023-02-02T12:28:57.768Z,0.72
2023-02-02T12:29:57.759Z,0.44
2023-02-02T12:30:57.812Z,0.89
2023-02-02T12:31:57.871Z,0.89
2023-02-02T12:32:57.799Z,1.06
2023-02-02T12:33:57.765Z,0.89
2023-02-02T12:34:57.762Z,0.89
2023-02-02T12:35:57.764Z,0.89
2023-02-02T12:36:57.754Z,0.61
2023-02-02T12:37:57.767Z,0.28
2023-02-02T12:38:57.787Z,0.72
2023-02-02T12:39:57.768Z,0.61
2023-02-02T12:40:57.772Z,0.44
2023-02-02T12:41:57.784Z,0.44
2023-02-02T12:42:57.781Z,0.44
2023-02-02T12:43:57.801Z,0.44
2023-02-02T12:44:57.782Z,0.44
2023-02-02T12:45:57.829Z,0.28
2023-02-02T12:46:57.777Z,0.44
2023-02-02T12:47:57.773Z,0.61
2023-02-02T12:48:57.801Z,0.17
2023-02-02T12:49:57.766Z,0.17
2023-02-02T12:50:57.776Z,0.61
2023-02-02T12:51:57.774Z,0.89
2023-02-02T12:52:57.781Z,0.28
2023-02-02T12:54:33.987Z,0.17
2023-02-02T12:54:57.827Z,0.61
2023-02-02T12:55:57.778Z,0.72
2023-02-02T12:56:57.805Z,0.89
2023-02-02T12:57:57.791Z,0.72
2023-02-02T12:58:57.773Z,0.89
2023-02-02T12:59:57.782Z,0.28
2023-02-02T13:00:57.784Z,0.44
2023-02-02T13:01:57.801Z,0.61
2023-02-02T13:02:57.779Z,0.44
2023-02-02T13:03:57.776Z,0.28
2023-02-02T13:04:57.802Z,0.44
2023-02-02T13:05:57.805Z,0.44
2023-02-02T13:06:57.793Z,0.44
2023-02-02T13:07:57.786Z,0.44
2023-02-02T13:08:57.808Z,0.28
2023-02-02T13:09:57.792Z,0.44
2023-02-02T13:10:57.795Z,0.61
2023-02-02T13:11:57.794Z,0.17
2023-02-02T13:12:57.786Z,0.44
2023-02-02T13:13:57.795Z,0.28
2023-02-02T13:14:57.834Z,0.17
2023-02-02T13:15:57.794Z,0.17
2023-02-02T13:16:57.828Z,0.44
2023-02-02T13:17:57.798Z,0.44
2023-02-02T13:18:57.801Z,0.28
2023-02-02T13:19:57.809Z,0.28
2023-02-02T13:20:57.857Z,0.28
2023-02-02T13:21:57.811Z,0
2023-02-02T13:22:57.807Z,0.61
2023-02-02T13:23:57.807Z,0.28